sensor_id;sensor_type;location;lat;lon;timestamp;temperature;humidity
54938;DHT22;52756;52.826;6.214;2022-07-25T00:00:08;24.00;55.50
54938;DHT22;52756;52.826;6.214;2022-07-25T00:02:34;24.00;55.60
54938;DHT22;52756;52.826;6.214;2022-07-25T00:05:00;24.00;55.60
54938;DHT22;52756;52.826;6.214;2022-07-25T00:07:26;24.00;55.60
54938;DHT22;52756;52.826;6.214;2022-07-25T00:09:52;23.90;55.70
54938;DHT22;52756;52.826;6.214;2022-07-25T00:12:19;23.90;55.70
54938;DHT22;52756;52.826;6.214;2022-07-25T00:14:44;23.90;55.80
54938;DHT22;52756;52.826;6.214;2022-07-25T00:17:10;23.90;55.80
54938;DHT22;52756;52.826;6.214;2022-07-25T00:19:36;23.80;55.80
54938;DHT22;52756;52.826;6.214;2022-07-25T00:22:02;23.80;55.50
54938;DHT22;52756;52.826;6.214;2022-07-25T00:24:28;23.80;55.60
54938;DHT22;52756;52.826;6.214;2022-07-25T00:26:54;23.80;55.80
54938;DHT22;52756;52.826;6.214;2022-07-25T00:29:19;23.80;55.80
54938;DHT22;52756;52.826;6.214;2022-07-25T00:31:45;23.80;55.90
54938;DHT22;52756;52.826;6.214;2022-07-25T00:34:11;23.80;56.00
54938;DHT22;52756;52.826;6.214;2022-07-25T00:36:37;23.70;56.00
54938;DHT22;52756;52.826;6.214;2022-07-25T00:39:03;23.70;56.20
54938;DHT22;52756;52.826;6.214;2022-07-25T00:41:29;23.70;56.30
54938;DHT22;52756;52.826;6.214;2022-07-25T00:43:54;23.60;56.30
54938;DHT22;52756;52.826;6.214;2022-07-25T00:46:20;23.60;56.40
54938;DHT22;52756;52.826;6.214;2022-07-25T00:48:46;23.50;56.40
54938;DHT22;52756;52.826;6.214;2022-07-25T00:51:12;23.50;56.40
54938;DHT22;52756;52.826;6.214;2022-07-25T00:53:39;23.40;56.50
54938;DHT22;52756;52.826;6.214;2022-07-25T00:56:05;23.40;56.60
54938;DHT22;52756;52.826;6.214;2022-07-25T00:58:31;23.30;56.70
54938;DHT22;52756;52.826;6.214;2022-07-25T01:00:58;23.30;56.90
54938;DHT22;52756;52.826;6.214;2022-07-25T01:03:24;23.20;57.00
54938;DHT22;52756;52.826;6.214;2022-07-25T01:05:49;23.20;57.10
54938;DHT22;52756;52.826;6.214;2022-07-25T01:08:19;23.10;57.10
54938;DHT22;52756;52.826;6.214;2022-07-25T01:10:46;23.10;57.30
54938;DHT22;52756;52.826;6.214;2022-07-25T01:13:12;23.00;57.40
54938;DHT22;52756;52.826;6.214;2022-07-25T01:15:38;23.00;57.30
54938;DHT22;52756;52.826;6.214;2022-07-25T01:18:05;22.90;57.50
54938;DHT22;52756;52.826;6.214;2022-07-25T01:20:31;22.90;57.60
54938;DHT22;52756;52.826;6.214;2022-07-25T01:22:58;22.80;57.60
54938;DHT22;52756;52.826;6.214;2022-07-25T01:25:25;22.80;57.70
54938;DHT22;52756;52.826;6.214;2022-07-25T01:27:52;22.70;57.80
54938;DHT22;52756;52.826;6.214;2022-07-25T01:30:19;22.70;57.80
54938;DHT22;52756;52.826;6.214;2022-07-25T01:32:46;22.70;57.90
54938;DHT22;52756;52.826;6.214;2022-07-25T01:35:12;22.60;58.00
54938;DHT22;52756;52.826;6.214;2022-07-25T01:37:40;22.60;58.10
54938;DHT22;52756;52.826;6.214;2022-07-25T01:40:06;22.60;58.20
54938;DHT22;52756;52.826;6.214;2022-07-25T01:42:32;22.60;58.30
54938;DHT22;52756;52.826;6.214;2022-07-25T01:44:58;22.50;58.30
54938;DHT22;52756;52.826;6.214;2022-07-25T01:47:24;22.50;58.30
54938;DHT22;52756;52.826;6.214;2022-07-25T01:49:50;22.50;58.30
54938;DHT22;52756;52.826;6.214;2022-07-25T01:52:16;22.50;58.40
54938;DHT22;52756;52.826;6.214;2022-07-25T01:54:42;22.50;58.50
54938;DHT22;52756;52.826;6.214;2022-07-25T01:57:08;22.50;58.50
54938;DHT22;52756;52.826;6.214;2022-07-25T01:59:40;22.40;58.50
54938;DHT22;52756;52.826;6.214;2022-07-25T02:02:07;22.40;58.50
54938;DHT22;52756;52.826;6.214;2022-07-25T02:04:33;22.40;58.70
54938;DHT22;52756;52.826;6.214;2022-07-25T02:06:59;22.40;58.50
54938;DHT22;52756;52.826;6.214;2022-07-25T02:09:25;22.40;58.40
54938;DHT22;52756;52.826;6.214;2022-07-25T02:11:50;22.40;58.20
54938;DHT22;52756;52.826;6.214;2022-07-25T02:14:16;22.40;58.10
54938;DHT22;52756;52.826;6.214;2022-07-25T02:16:42;22.40;58.30
54938;DHT22;52756;52.826;6.214;2022-07-25T02:19:08;22.40;57.80
54938;DHT22;52756;52.826;6.214;2022-07-25T02:21:33;22.40;57.70
54938;DHT22;52756;52.826;6.214;2022-07-25T02:23:59;22.50;58.00
54938;DHT22;52756;52.826;6.214;2022-07-25T02:26:25;22.50;58.20
54938;DHT22;52756;52.826;6.214;2022-07-25T02:28:50;22.50;58.20
54938;DHT22;52756;52.826;6.214;2022-07-25T02:31:16;22.50;57.70
54938;DHT22;52756;52.826;6.214;2022-07-25T02:33:42;22.50;58.20
54938;DHT22;52756;52.826;6.214;2022-07-25T02:36:09;22.50;57.80
54938;DHT22;52756;52.826;6.214;2022-07-25T02:38:35;22.50;57.80
54938;DHT22;52756;52.826;6.214;2022-07-25T02:41:00;22.50;57.70
54938;DHT22;52756;52.826;6.214;2022-07-25T02:43:26;22.50;57.60
54938;DHT22;52756;52.826;6.214;2022-07-25T02:45:52;22.50;57.60
54938;DHT22;52756;52.826;6.214;2022-07-25T02:48:18;22.50;57.60
54938;DHT22;52756;52.826;6.214;2022-07-25T02:50:44;22.50;58.00
54938;DHT22;52756;52.826;6.214;2022-07-25T02:53:10;22.50;58.30
54938;DHT22;52756;52.826;6.214;2022-07-25T02:55:36;22.50;57.90
54938;DHT22;52756;52.826;6.214;2022-07-25T02:58:01;22.50;57.70
54938;DHT22;52756;52.826;6.214;2022-07-25T03:00:27;22.50;57.60
54938;DHT22;52756;52.826;6.214;2022-07-25T03:02:54;22.50;58.30
54938;DHT22;52756;52.826;6.214;2022-07-25T03:05:20;22.50;58.60
54938;DHT22;52756;52.826;6.214;2022-07-25T03:07:46;22.50;58.80
54938;DHT22;52756;52.826;6.214;2022-07-25T03:10:13;22.40;58.30
54938;DHT22;52756;52.826;6.214;2022-07-25T03:12:39;22.40;58.20
54938;DHT22;52756;52.826;6.214;2022-07-25T03:15:06;22.30;58.30
54938;DHT22;52756;52.826;6.214;2022-07-25T03:17:32;22.40;59.00
54938;DHT22;52756;52.826;6.214;2022-07-25T03:19:57;22.30;59.10
54938;DHT22;52756;52.826;6.214;2022-07-25T03:22:24;22.20;58.70
54938;DHT22;52756;52.826;6.214;2022-07-25T03:24:50;22.20;58.40
54938;DHT22;52756;52.826;6.214;2022-07-25T03:27:16;22.20;59.00
54938;DHT22;52756;52.826;6.214;2022-07-25T03:29:41;22.20;59.40
54938;DHT22;52756;52.826;6.214;2022-07-25T03:32:07;22.10;58.80
54938;DHT22;52756;52.826;6.214;2022-07-25T03:34:35;22.10;58.50
54938;DHT22;52756;52.826;6.214;2022-07-25T03:37:01;22.10;59.40
54938;DHT22;52756;52.826;6.214;2022-07-25T03:39:27;22.10;59.80
54938;DHT22;52756;52.826;6.214;2022-07-25T03:41:54;22.10;59.90
54938;DHT22;52756;52.826;6.214;2022-07-25T03:44:21;22.00;59.50
54938;DHT22;52756;52.826;6.214;2022-07-25T03:46:47;22.00;59.20
54938;DHT22;52756;52.826;6.214;2022-07-25T03:49:13;22.00;59.70
54938;DHT22;52756;52.826;6.214;2022-07-25T03:51:39;22.00;60.10
54938;DHT22;52756;52.826;6.214;2022-07-25T03:54:05;21.90;60.10
54938;DHT22;52756;52.826;6.214;2022-07-25T03:56:36;21.80;60.30
54938;DHT22;52756;52.826;6.214;2022-07-25T03:59:03;21.80;60.30
54938;DHT22;52756;52.826;6.214;2022-07-25T04:01:29;21.80;60.40
54938;DHT22;52756;52.826;6.214;2022-07-25T04:03:55;21.70;60.50
54938;DHT22;52756;52.826;6.214;2022-07-25T04:06:20;21.60;60.70
54938;DHT22;52756;52.826;6.214;2022-07-25T04:08:48;21.60;60.80
54938;DHT22;52756;52.826;6.214;2022-07-25T04:11:14;21.50;61.00
54938;DHT22;52756;52.826;6.214;2022-07-25T04:13:40;21.50;61.10
54938;DHT22;52756;52.826;6.214;2022-07-25T04:16:06;21.40;61.10
54938;DHT22;52756;52.826;6.214;2022-07-25T04:18:31;21.40;61.30
54938;DHT22;52756;52.826;6.214;2022-07-25T04:20:57;21.30;61.30
54938;DHT22;52756;52.826;6.214;2022-07-25T04:23:23;21.30;61.30
54938;DHT22;52756;52.826;6.214;2022-07-25T04:25:48;21.30;61.50
54938;DHT22;52756;52.826;6.214;2022-07-25T04:28:14;21.30;61.40
54938;DHT22;52756;52.826;6.214;2022-07-25T04:30:40;21.30;61.30
54938;DHT22;52756;52.826;6.214;2022-07-25T04:33:05;21.30;61.40
54938;DHT22;52756;52.826;6.214;2022-07-25T04:35:31;21.30;61.40
54938;DHT22;52756;52.826;6.214;2022-07-25T04:37:57;21.40;61.60
54938;DHT22;52756;52.826;6.214;2022-07-25T04:40:22;21.40;62.00
54938;DHT22;52756;52.826;6.214;2022-07-25T04:42:48;21.40;62.10
54938;DHT22;52756;52.826;6.214;2022-07-25T04:45:14;21.40;62.00
54938;DHT22;52756;52.826;6.214;2022-07-25T04:47:39;21.40;61.80
54938;DHT22;52756;52.826;6.214;2022-07-25T04:50:05;21.50;61.90
54938;DHT22;52756;52.826;6.214;2022-07-25T04:52:32;21.50;61.90
54938;DHT22;52756;52.826;6.214;2022-07-25T04:54:58;21.50;61.80
54938;DHT22;52756;52.826;6.214;2022-07-25T04:57:23;21.50;61.60
54938;DHT22;52756;52.826;6.214;2022-07-25T04:59:49;21.60;61.60
54938;DHT22;52756;52.826;6.214;2022-07-25T05:02:14;21.60;61.50
54938;DHT22;52756;52.826;6.214;2022-07-25T05:04:40;21.60;61.60
54938;DHT22;52756;52.826;6.214;2022-07-25T05:07:06;21.60;61.30
54938;DHT22;52756;52.826;6.214;2022-07-25T05:09:31;21.70;61.10
54938;DHT22;52756;52.826;6.214;2022-07-25T05:11:57;21.70;61.00
54938;DHT22;52756;52.826;6.214;2022-07-25T05:14:23;21.80;61.60
54938;DHT22;52756;52.826;6.214;2022-07-25T05:16:49;21.80;61.10
54938;DHT22;52756;52.826;6.214;2022-07-25T05:19:15;21.80;60.90
54938;DHT22;52756;52.826;6.214;2022-07-25T05:21:40;21.90;60.80
54938;DHT22;52756;52.826;6.214;2022-07-25T05:24:06;21.90;60.60
54938;DHT22;52756;52.826;6.214;2022-07-25T05:26:32;22.00;60.60
54938;DHT22;52756;52.826;6.214;2022-07-25T05:28:57;22.00;60.80
54938;DHT22;52756;52.826;6.214;2022-07-25T05:31:23;22.10;60.80
54938;DHT22;52756;52.826;6.214;2022-07-25T05:33:49;22.10;60.90
54938;DHT22;52756;52.826;6.214;2022-07-25T05:36:14;22.10;60.80
54938;DHT22;52756;52.826;6.214;2022-07-25T05:38:41;22.20;60.90
54938;DHT22;52756;52.826;6.214;2022-07-25T05:41:06;22.20;61.00
54938;DHT22;52756;52.826;6.214;2022-07-25T05:43:32;22.30;61.00
54938;DHT22;52756;52.826;6.214;2022-07-25T05:46:02;22.30;61.00
54938;DHT22;52756;52.826;6.214;2022-07-25T05:48:29;22.30;60.90
54938;DHT22;52756;52.826;6.214;2022-07-25T05:50:54;22.40;61.10
54938;DHT22;52756;52.826;6.214;2022-07-25T05:53:21;22.50;61.20
54938;DHT22;52756;52.826;6.214;2022-07-25T05:55:46;22.60;61.20
54938;DHT22;52756;52.826;6.214;2022-07-25T05:58:12;22.60;61.10
54938;DHT22;52756;52.826;6.214;2022-07-25T06:00:38;22.70;61.20
54938;DHT22;52756;52.826;6.214;2022-07-25T06:03:04;22.80;60.90
54938;DHT22;52756;52.826;6.214;2022-07-25T06:05:30;22.80;60.90
54938;DHT22;52756;52.826;6.214;2022-07-25T06:07:56;22.90;60.00
54938;DHT22;52756;52.826;6.214;2022-07-25T06:10:22;23.00;59.80
54938;DHT22;52756;52.826;6.214;2022-07-25T06:12:48;23.10;59.40
54938;DHT22;52756;52.826;6.214;2022-07-25T06:15:14;23.10;59.20
54938;DHT22;52756;52.826;6.214;2022-07-25T06:17:39;23.20;59.00
54938;DHT22;52756;52.826;6.214;2022-07-25T06:20:05;23.30;59.00
54938;DHT22;52756;52.826;6.214;2022-07-25T06:22:31;23.30;59.00
54938;DHT22;52756;52.826;6.214;2022-07-25T06:24:57;23.40;59.10
54938;DHT22;52756;52.826;6.214;2022-07-25T06:27:22;23.60;59.00
54938;DHT22;52756;52.826;6.214;2022-07-25T06:29:48;23.80;58.70
54938;DHT22;52756;52.826;6.214;2022-07-25T06:32:14;24.00;58.40
54938;DHT22;52756;52.826;6.214;2022-07-25T06:34:39;24.20;58.30
54938;DHT22;52756;52.826;6.214;2022-07-25T06:37:05;24.40;58.20
54938;DHT22;52756;52.826;6.214;2022-07-25T06:39:31;24.80;58.00
54938;DHT22;52756;52.826;6.214;2022-07-25T06:41:56;25.10;57.30
54938;DHT22;52756;52.826;6.214;2022-07-25T06:44:24;25.60;57.20
54938;DHT22;52756;52.826;6.214;2022-07-25T06:46:50;25.80;56.30
54938;DHT22;52756;52.826;6.214;2022-07-25T06:49:16;26.00;55.80
54938;DHT22;52756;52.826;6.214;2022-07-25T06:51:42;26.20;55.50
54938;DHT22;52756;52.826;6.214;2022-07-25T06:54:08;26.30;55.50
54938;DHT22;52756;52.826;6.214;2022-07-25T06:56:34;26.40;54.80
54938;DHT22;52756;52.826;6.214;2022-07-25T06:58:59;26.40;54.50
54938;DHT22;52756;52.826;6.214;2022-07-25T07:01:25;26.50;53.90
54938;DHT22;52756;52.826;6.214;2022-07-25T07:03:51;26.60;53.70
54938;DHT22;52756;52.826;6.214;2022-07-25T07:06:17;26.60;53.60
54938;DHT22;52756;52.826;6.214;2022-07-25T07:08:42;26.60;53.70
54938;DHT22;52756;52.826;6.214;2022-07-25T07:11:08;26.60;53.70
54938;DHT22;52756;52.826;6.214;2022-07-25T07:13:34;26.60;53.70
54938;DHT22;52756;52.826;6.214;2022-07-25T07:15:59;26.60;54.10
54938;DHT22;52756;52.826;6.214;2022-07-25T07:18:25;26.60;54.00
54938;DHT22;52756;52.826;6.214;2022-07-25T07:20:51;26.60;54.00
54938;DHT22;52756;52.826;6.214;2022-07-25T07:23:17;26.60;54.20
54938;DHT22;52756;52.826;6.214;2022-07-25T07:25:44;26.60;54.00
54938;DHT22;52756;52.826;6.214;2022-07-25T07:28:11;26.70;54.10
54938;DHT22;52756;52.826;6.214;2022-07-25T07:30:37;26.80;53.90
54938;DHT22;52756;52.826;6.214;2022-07-25T07:33:03;26.90;54.00
54938;DHT22;52756;52.826;6.214;2022-07-25T07:35:29;27.10;53.90
54938;DHT22;52756;52.826;6.214;2022-07-25T07:37:55;27.30;53.70
54938;DHT22;52756;52.826;6.214;2022-07-25T07:40:21;27.50;53.00
54938;DHT22;52756;52.826;6.214;2022-07-25T07:42:48;27.60;52.80
54938;DHT22;52756;52.826;6.214;2022-07-25T07:45:22;27.70;52.80
54938;DHT22;52756;52.826;6.214;2022-07-25T07:47:50;27.80;52.40
54938;DHT22;52756;52.826;6.214;2022-07-25T07:50:18;27.80;52.60
54938;DHT22;52756;52.826;6.214;2022-07-25T07:52:44;27.90;52.40
54938;DHT22;52756;52.826;6.214;2022-07-25T07:55:10;27.90;52.10
54938;DHT22;52756;52.826;6.214;2022-07-25T07:57:55;27.90;51.80
54938;DHT22;52756;52.826;6.214;2022-07-25T08:00:21;27.90;51.40
54938;DHT22;52756;52.826;6.214;2022-07-25T08:02:51;27.90;51.20
54938;DHT22;52756;52.826;6.214;2022-07-25T08:05:26;27.90;51.30
54938;DHT22;52756;52.826;6.214;2022-07-25T08:07:53;27.90;51.20
54938;DHT22;52756;52.826;6.214;2022-07-25T08:10:25;27.90;51.40
54938;DHT22;52756;52.826;6.214;2022-07-25T08:12:51;27.90;51.80
54938;DHT22;52756;52.826;6.214;2022-07-25T08:15:17;27.80;51.90
54938;DHT22;52756;52.826;6.214;2022-07-25T08:17:45;27.80;52.50
54938;DHT22;52756;52.826;6.214;2022-07-25T08:20:12;27.80;52.30
54938;DHT22;52756;52.826;6.214;2022-07-25T08:22:40;27.80;52.10
54938;DHT22;52756;52.826;6.214;2022-07-25T08:25:08;27.80;52.20
54938;DHT22;52756;52.826;6.214;2022-07-25T08:27:34;27.80;51.90
54938;DHT22;52756;52.826;6.214;2022-07-25T08:30:01;27.80;51.00
54938;DHT22;52756;52.826;6.214;2022-07-25T08:32:27;27.80;50.70
54938;DHT22;52756;52.826;6.214;2022-07-25T08:34:53;27.70;49.90
54938;DHT22;52756;52.826;6.214;2022-07-25T08:37:19;27.60;50.00
54938;DHT22;52756;52.826;6.214;2022-07-25T08:39:45;27.60;50.30
54938;DHT22;52756;52.826;6.214;2022-07-25T08:42:10;27.60;50.40
54938;DHT22;52756;52.826;6.214;2022-07-25T08:44:40;27.50;50.10
54938;DHT22;52756;52.826;6.214;2022-07-25T08:47:08;27.40;50.10
54938;DHT22;52756;52.826;6.214;2022-07-25T08:49:34;27.40;50.20
54938;DHT22;52756;52.826;6.214;2022-07-25T08:52:02;27.30;50.30
54938;DHT22;52756;52.826;6.214;2022-07-25T08:54:30;27.30;50.80
54938;DHT22;52756;52.826;6.214;2022-07-25T08:56:55;27.20;50.70
54938;DHT22;52756;52.826;6.214;2022-07-25T08:59:21;27.20;50.30
54938;DHT22;52756;52.826;6.214;2022-07-25T09:01:47;27.10;50.30
54938;DHT22;52756;52.826;6.214;2022-07-25T09:04:13;27.10;50.20
54938;DHT22;52756;52.826;6.214;2022-07-25T09:06:49;27.10;50.20
54938;DHT22;52756;52.826;6.214;2022-07-25T09:09:15;27.00;50.30
54938;DHT22;52756;52.826;6.214;2022-07-25T09:11:40;27.10;50.70
54938;DHT22;52756;52.826;6.214;2022-07-25T09:14:09;27.10;50.60
54938;DHT22;52756;52.826;6.214;2022-07-25T09:16:41;27.20;50.70
54938;DHT22;52756;52.826;6.214;2022-07-25T09:19:09;27.20;50.20
54938;DHT22;52756;52.826;6.214;2022-07-25T09:21:36;27.30;49.60
54938;DHT22;52756;52.826;6.214;2022-07-25T09:24:17;27.40;49.90
54938;DHT22;52756;52.826;6.214;2022-07-25T09:26:48;27.40;49.80
54938;DHT22;52756;52.826;6.214;2022-07-25T09:29:16;27.60;50.30
54938;DHT22;52756;52.826;6.214;2022-07-25T09:31:42;27.70;50.30
54938;DHT22;52756;52.826;6.214;2022-07-25T09:34:07;27.80;50.00
54938;DHT22;52756;52.826;6.214;2022-07-25T09:36:34;27.80;49.60
54938;DHT22;52756;52.826;6.214;2022-07-25T09:39:04;27.90;49.50
54938;DHT22;52756;52.826;6.214;2022-07-25T09:41:38;28.00;49.60
54938;DHT22;52756;52.826;6.214;2022-07-25T09:44:34;28.00;49.40
54938;DHT22;52756;52.826;6.214;2022-07-25T09:47:12;28.10;49.50
54938;DHT22;52756;52.826;6.214;2022-07-25T09:49:40;28.10;49.50
54938;DHT22;52756;52.826;6.214;2022-07-25T09:52:06;28.10;49.60
54938;DHT22;52756;52.826;6.214;2022-07-25T09:54:32;28.10;49.70
54938;DHT22;52756;52.826;6.214;2022-07-25T09:56:59;28.20;49.80
54938;DHT22;52756;52.826;6.214;2022-07-25T09:59:24;28.20;50.70
54938;DHT22;52756;52.826;6.214;2022-07-25T10:02:25;28.30;50.90
54938;DHT22;52756;52.826;6.214;2022-07-25T10:04:55;28.30;51.20
54938;DHT22;52756;52.826;6.214;2022-07-25T10:07:24;28.40;51.50
54938;DHT22;52756;52.826;6.214;2022-07-25T10:09:53;28.30;51.40
54938;DHT22;52756;52.826;6.214;2022-07-25T10:12:22;28.40;51.60
54938;DHT22;52756;52.826;6.214;2022-07-25T10:15:04;28.40;51.60
54938;DHT22;52756;52.826;6.214;2022-07-25T10:17:31;28.40;51.50
54938;DHT22;52756;52.826;6.214;2022-07-25T10:19:57;28.30;51.30
54938;DHT22;52756;52.826;6.214;2022-07-25T10:22:42;28.30;51.40
54938;DHT22;52756;52.826;6.214;2022-07-25T10:25:14;28.30;51.50
54938;DHT22;52756;52.826;6.214;2022-07-25T10:30:21;28.20;51.50
54938;DHT22;52756;52.826;6.214;2022-07-25T10:33:03;28.10;51.40
54938;DHT22;52756;52.826;6.214;2022-07-25T10:35:30;28.10;52.00
54938;DHT22;52756;52.826;6.214;2022-07-25T10:37:57;28.00;52.40
54938;DHT22;52756;52.826;6.214;2022-07-25T10:43:21;27.90;52.60
54938;DHT22;52756;52.826;6.214;2022-07-25T10:45:56;27.80;52.50
54938;DHT22;52756;52.826;6.214;2022-07-25T10:48:27;27.70;53.20
54938;DHT22;52756;52.826;6.214;2022-07-25T10:51:01;27.70;53.20
54938;DHT22;52756;52.826;6.214;2022-07-25T10:53:45;27.60;52.90
54938;DHT22;52756;52.826;6.214;2022-07-25T10:56:15;27.60;53.00
54938;DHT22;52756;52.826;6.214;2022-07-25T10:58:51;27.60;52.80
54938;DHT22;52756;52.826;6.214;2022-07-25T11:03:50;27.60;52.90
54938;DHT22;52756;52.826;6.214;2022-07-25T11:06:27;27.60;52.60
54938;DHT22;52756;52.826;6.214;2022-07-25T11:08:54;27.50;52.30
54938;DHT22;52756;52.826;6.214;2022-07-25T11:11:35;27.50;52.20
54938;DHT22;52756;52.826;6.214;2022-07-25T11:14:03;27.40;52.00
54938;DHT22;52756;52.826;6.214;2022-07-25T11:16:29;27.40;52.00
54938;DHT22;52756;52.826;6.214;2022-07-25T11:18:55;27.40;52.00
54938;DHT22;52756;52.826;6.214;2022-07-25T11:21:20;27.40;52.10
54938;DHT22;52756;52.826;6.214;2022-07-25T11:23:50;27.30;52.10
54938;DHT22;52756;52.826;6.214;2022-07-25T11:26:16;27.30;51.90
54938;DHT22;52756;52.826;6.214;2022-07-25T11:28:48;27.30;51.90
54938;DHT22;52756;52.826;6.214;2022-07-25T11:31:14;27.30;51.60
54938;DHT22;52756;52.826;6.214;2022-07-25T11:33:44;27.30;51.60
54938;DHT22;52756;52.826;6.214;2022-07-25T11:36:10;27.30;51.50
54938;DHT22;52756;52.826;6.214;2022-07-25T11:38:37;27.20;51.60
54938;DHT22;52756;52.826;6.214;2022-07-25T11:41:03;27.20;51.70
54938;DHT22;52756;52.826;6.214;2022-07-25T11:43:29;27.10;51.70
54938;DHT22;52756;52.826;6.214;2022-07-25T11:46:03;27.10;51.40
54938;DHT22;52756;52.826;6.214;2022-07-25T11:48:36;27.10;51.10
54938;DHT22;52756;52.826;6.214;2022-07-25T11:51:17;27.10;51.00
54938;DHT22;52756;52.826;6.214;2022-07-25T11:53:46;27.10;51.20
54938;DHT22;52756;52.826;6.214;2022-07-25T11:56:18;27.10;50.80
54938;DHT22;52756;52.826;6.214;2022-07-25T11:58:58;27.10;50.50
54938;DHT22;52756;52.826;6.214;2022-07-25T12:01:25;27.10;50.50
54938;DHT22;52756;52.826;6.214;2022-07-25T12:04:17;27.10;50.20
54938;DHT22;52756;52.826;6.214;2022-07-25T12:06:45;27.20;50.50
54938;DHT22;52756;52.826;6.214;2022-07-25T12:09:16;27.20;50.60
54938;DHT22;52756;52.826;6.214;2022-07-25T12:11:43;27.20;50.70
54938;DHT22;52756;52.826;6.214;2022-07-25T12:14:09;27.20;50.20
54938;DHT22;52756;52.826;6.214;2022-07-25T12:16:35;27.20;49.70
54938;DHT22;52756;52.826;6.214;2022-07-25T12:19:02;27.20;49.60
54938;DHT22;52756;52.826;6.214;2022-07-25T12:21:28;27.30;49.50
54938;DHT22;52756;52.826;6.214;2022-07-25T12:23:54;27.30;49.20
54938;DHT22;52756;52.826;6.214;2022-07-25T12:26:19;27.40;49.10
54938;DHT22;52756;52.826;6.214;2022-07-25T12:28:45;27.40;49.10
54938;DHT22;52756;52.826;6.214;2022-07-25T12:31:10;27.40;48.80
54938;DHT22;52756;52.826;6.214;2022-07-25T12:33:36;27.50;48.60
54938;DHT22;52756;52.826;6.214;2022-07-25T12:36:03;27.50;48.20
54938;DHT22;52756;52.826;6.214;2022-07-25T12:38:29;27.60;48.30
54938;DHT22;52756;52.826;6.214;2022-07-25T12:40:55;27.60;48.30
54938;DHT22;52756;52.826;6.214;2022-07-25T12:43:21;27.60;48.50
54938;DHT22;52756;52.826;6.214;2022-07-25T12:45:47;27.60;48.10
54938;DHT22;52756;52.826;6.214;2022-07-25T12:48:13;27.50;48.20
54938;DHT22;52756;52.826;6.214;2022-07-25T12:50:40;27.50;48.40
54938;DHT22;52756;52.826;6.214;2022-07-25T12:53:06;27.50;48.30
54938;DHT22;52756;52.826;6.214;2022-07-25T12:55:32;27.50;48.20
54938;DHT22;52756;52.826;6.214;2022-07-25T12:57:58;27.40;48.00
54938;DHT22;52756;52.826;6.214;2022-07-25T13:00:24;27.40;47.90
54938;DHT22;52756;52.826;6.214;2022-07-25T13:02:51;27.30;48.00
54938;DHT22;52756;52.826;6.214;2022-07-25T13:05:20;27.30;47.90
54938;DHT22;52756;52.826;6.214;2022-07-25T13:07:47;27.30;47.70
54938;DHT22;52756;52.826;6.214;2022-07-25T13:10:13;27.20;47.60
54938;DHT22;52756;52.826;6.214;2022-07-25T13:12:39;27.10;47.90
54938;DHT22;52756;52.826;6.214;2022-07-25T13:15:06;27.10;47.90
54938;DHT22;52756;52.826;6.214;2022-07-25T13:17:32;27.00;47.80
54938;DHT22;52756;52.826;6.214;2022-07-25T13:19:58;27.00;47.80
54938;DHT22;52756;52.826;6.214;2022-07-25T13:22:24;26.90;47.90
54938;DHT22;52756;52.826;6.214;2022-07-25T13:24:50;26.80;47.90
54938;DHT22;52756;52.826;6.214;2022-07-25T13:27:20;26.80;48.20
54938;DHT22;52756;52.826;6.214;2022-07-25T13:29:47;26.70;48.10
54938;DHT22;52756;52.826;6.214;2022-07-25T13:32:18;26.70;48.40
54938;DHT22;52756;52.826;6.214;2022-07-25T13:34:44;26.60;48.60
54938;DHT22;52756;52.826;6.214;2022-07-25T13:37:10;26.60;48.90
54938;DHT22;52756;52.826;6.214;2022-07-25T13:39:36;26.70;49.20
54938;DHT22;52756;52.826;6.214;2022-07-25T13:42:04;26.60;49.20
54938;DHT22;52756;52.826;6.214;2022-07-25T13:44:30;26.60;49.10
54938;DHT22;52756;52.826;6.214;2022-07-25T13:46:55;26.60;49.20
54938;DHT22;52756;52.826;6.214;2022-07-25T13:49:23;26.60;49.30
54938;DHT22;52756;52.826;6.214;2022-07-25T13:51:49;26.60;49.40
54938;DHT22;52756;52.826;6.214;2022-07-25T13:54:15;26.60;49.20
54938;DHT22;52756;52.826;6.214;2022-07-25T13:56:41;26.60;49.00
54938;DHT22;52756;52.826;6.214;2022-07-25T13:59:07;26.50;48.70
54938;DHT22;52756;52.826;6.214;2022-07-25T14:01:33;26.40;49.00
54938;DHT22;52756;52.826;6.214;2022-07-25T14:03:59;26.20;48.30
54938;DHT22;52756;52.826;6.214;2022-07-25T14:06:25;26.10;48.40
54938;DHT22;52756;52.826;6.214;2022-07-25T14:08:50;26.00;48.90
54938;DHT22;52756;52.826;6.214;2022-07-25T14:11:16;25.90;48.80
54938;DHT22;52756;52.826;6.214;2022-07-25T14:13:41;25.90;48.80
54938;DHT22;52756;52.826;6.214;2022-07-25T14:16:08;25.80;48.80
54938;DHT22;52756;52.826;6.214;2022-07-25T14:18:34;25.80;49.10
54938;DHT22;52756;52.826;6.214;2022-07-25T14:21:00;25.70;49.00
54938;DHT22;52756;52.826;6.214;2022-07-25T14:23:26;25.70;48.30
54938;DHT22;52756;52.826;6.214;2022-07-25T14:25:52;25.70;47.80
54938;DHT22;52756;52.826;6.214;2022-07-25T14:28:18;25.70;47.50
54938;DHT22;52756;52.826;6.214;2022-07-25T14:30:44;25.60;47.30
54938;DHT22;52756;52.826;6.214;2022-07-25T14:33:10;25.70;47.50
54938;DHT22;52756;52.826;6.214;2022-07-25T14:35:35;25.60;47.10
54938;DHT22;52756;52.826;6.214;2022-07-25T14:38:02;25.60;47.10
54938;DHT22;52756;52.826;6.214;2022-07-25T14:40:27;25.50;46.90
54938;DHT22;52756;52.826;6.214;2022-07-25T14:42:53;25.40;47.20
54938;DHT22;52756;52.826;6.214;2022-07-25T14:45:19;25.40;47.70
54938;DHT22;52756;52.826;6.214;2022-07-25T14:47:46;25.40;48.60
54938;DHT22;52756;52.826;6.214;2022-07-25T14:50:11;25.40;49.40
54938;DHT22;52756;52.826;6.214;2022-07-25T14:52:37;25.40;49.30
54938;DHT22;52756;52.826;6.214;2022-07-25T14:55:03;25.40;49.50
54938;DHT22;52756;52.826;6.214;2022-07-25T14:57:29;25.40;49.00
54938;DHT22;52756;52.826;6.214;2022-07-25T14:59:55;25.40;48.50
54938;DHT22;52756;52.826;6.214;2022-07-25T15:02:21;25.30;48.30
54938;DHT22;52756;52.826;6.214;2022-07-25T15:04:46;25.30;47.50
54938;DHT22;52756;52.826;6.214;2022-07-25T15:07:12;25.30;47.30
54938;DHT22;52756;52.826;6.214;2022-07-25T15:09:38;25.20;47.40
54938;DHT22;52756;52.826;6.214;2022-07-25T15:12:04;25.20;47.70
54938;DHT22;52756;52.826;6.214;2022-07-25T15:14:30;25.20;47.80
54938;DHT22;52756;52.826;6.214;2022-07-25T15:16:55;25.20;47.90
54938;DHT22;52756;52.826;6.214;2022-07-25T15:19:21;25.20;48.10
54938;DHT22;52756;52.826;6.214;2022-07-25T15:21:47;25.20;48.50
54938;DHT22;52756;52.826;6.214;2022-07-25T15:24:13;25.10;48.60
54938;DHT22;52756;52.826;6.214;2022-07-25T15:26:38;25.20;49.00
54938;DHT22;52756;52.826;6.214;2022-07-25T15:29:08;25.20;49.20
54938;DHT22;52756;52.826;6.214;2022-07-25T15:31:35;25.20;49.30
54938;DHT22;52756;52.826;6.214;2022-07-25T15:34:01;25.30;49.40
54938;DHT22;52756;52.826;6.214;2022-07-25T15:36:27;25.30;48.90